Time;durP1;ratioP1;P1;durP2;ratioP2;P2;SDS_P1;SDS_P2;PMS_P1;PMS_P2;Temp;Humidity;BMP_temperature;BMP_pressure;BME280_temperature;BME280_humidity;BME280_pressure;Samples;Min_cycle;Max_cycle;Signal;HPM_P1;HPM_P2
2023/09/02 00:00:09;;;;;;;55.45;33.92;;;17.50;99.90;;;;;;5084827;28;20019;-72
2023/09/02 00:02:35;;;;;;;53.30;32.28;;;17.50;99.90;;;;;;5078811;28;20498;-72
2023/09/02 00:05:00;;;;;;;54.85;32.25;;;17.50;99.90;;;;;;5086763;28;20025;-71
2023/09/02 00:07:26;;;;;;;57.10;32.03;;;17.50;99.90;;;;;;5087618;28;20016;-71
2023/09/02 00:09:51;;;;;;;50.28;31.20;;;17.50;99.90;;;;;;5079034;28;20033;-72
2023/09/02 00:12:17;;;;;;;54.00;31.95;;;17.50;99.90;;;;;;5091178;28;20439;-72
2023/09/02 00:14:43;;;;;;;53.22;32.28;;;17.40;99.90;;;;;;5076586;28;20020;-72
2023/09/02 00:17:08;;;;;;;49.58;30.20;;;17.40;99.90;;;;;;5085372;28;20021;-72
2023/09/02 00:19:34;;;;;;;53.35;30.80;;;17.30;99.90;;;;;;5077577;28;20020;-71
2023/09/02 00:22:00;;;;;;;52.20;30.45;;;17.30;99.90;;;;;;5085340;28;20353;-71
2023/09/02 00:24:25;;;;;;;50.40;30.08;;;17.30;99.90;;;;;;5082912;28;20077;-72
2023/09/02 00:26:51;;;;;;;55.10;31.30;;;17.20;99.90;;;;;;5073385;28;20020;-72
2023/09/02 00:29:16;;;;;;;51.17;30.25;;;17.20;99.90;;;;;;5079440;28;20411;-72
2023/09/02 00:31:42;;;;;;;48.40;29.52;;;17.10;99.90;;;;;;5084956;28;20082;-72
2023/09/02 00:34:08;;;;;;;51.00;29.80;;;17.10;99.90;;;;;;5080255;28;20025;-72
2023/09/02 00:36:33;;;;;;;46.20;29.20;;;17.10;99.90;;;;;;5073562;28;20020;-71
2023/09/02 00:38:59;;;;;;;47.33;28.83;;;17.00;99.90;;;;;;5072038;28;20043;-71
2023/09/02 00:41:25;;;;;;;49.55;29.45;;;17.00;99.90;;;;;;5080950;28;20024;-72
2023/09/02 00:43:51;;;;;;;50.35;28.85;;;17.00;99.90;;;;;;5074507;28;20728;-71
2023/09/02 00:46:16;;;;;;;47.30;27.65;;;16.90;99.90;;;;;;5075949;28;20517;-71
2023/09/02 00:48:42;;;;;;;47.80;28.33;;;16.90;99.90;;;;;;5082903;28;20020;-71
2023/09/02 00:51:09;;;;;;;45.60;27.17;;;16.90;99.90;;;;;;5090980;28;20016;-71
2023/09/02 00:53:35;;;;;;;45.72;27.75;;;16.80;99.90;;;;;;5090172;28;20024;-71
2023/09/02 00:56:01;;;;;;;51.85;27.23;;;16.80;99.90;;;;;;5085242;28;20025;-71
2023/09/02 00:58:27;;;;;;;46.67;27.50;;;16.80;99.90;;;;;;5077517;28;20101;-71
2023/09/02 01:00:53;;;;;;;47.25;27.52;;;16.80;99.90;;;;;;5083870;28;20112;-71
2023/09/02 01:03:19;;;;;;;46.85;28.38;;;16.70;99.90;;;;;;5088333;28;20086;-72
2023/09/02 01:05:44;;;;;;;44.03;26.33;;;16.70;99.90;;;;;;5071325;28;20025;-71
2023/09/02 01:08:11;;;;;;;46.63;27.25;;;16.60;99.90;;;;;;5090954;28;20023;-71
2023/09/02 01:10:37;;;;;;;44.85;27.08;;;16.60;99.90;;;;;;5087870;28;20513;-71
2023/09/02 01:13:03;;;;;;;41.00;26.08;;;16.60;99.90;;;;;;5081272;28;20051;-71
2023/09/02 01:15:33;;;;;;;46.95;27.80;;;16.60;99.90;;;;;;5082662;28;20020;-71
2023/09/02 01:17:58;;;;;;;50.22;28.92;;;16.50;99.90;;;;;;5083436;28;20104;-71
2023/09/02 01:20:28;;;;;;;51.20;29.77;;;16.50;99.90;;;;;;5082446;28;20024;-71
2023/09/02 01:23:32;;;;;;;49.63;27.60;;;16.40;99.90;;;;;;5087737;28;20028;-71
2023/09/02 01:26:22;;;;;;;47.45;28.67;;;16.40;99.90;;;;;;5074256;28;20130;-71
2023/09/02 01:28:51;;;;;;;47.10;27.90;;;16.50;99.90;;;;;;5075531;28;20029;-71
2023/09/02 01:31:18;;;;;;;50.70;29.73;;;16.40;99.90;;;;;;5082391;28;20016;-71
2023/09/02 01:33:47;;;;;;;47.08;28.00;;;16.40;99.90;;;;;;5082706;28;20020;-71
2023/09/02 01:36:17;;;;;;;48.78;28.95;;;16.40;99.90;;;;;;5078715;28;20149;-71
2023/09/02 01:38:43;;;;;;;48.53;28.90;;;16.40;99.90;;;;;;5083285;28;20154;-71
2023/09/02 01:41:10;;;;;;;48.38;29.27;;;16.40;99.90;;;;;;5080876;28;20031;-71
2023/09/02 01:43:38;;;;;;;51.72;29.17;;;16.40;99.90;;;;;;5088827;28;20028;-71
2023/09/02 01:46:05;;;;;;;54.38;30.27;;;16.50;99.90;;;;;;5074502;28;20074;-71
2023/09/02 01:48:31;;;;;;;64.22;34.28;;;16.40;99.90;;;;;;5083981;28;20024;-71
2023/09/02 01:50:57;;;;;;;65.32;32.95;;;16.40;99.90;;;;;;5090445;28;20024;-71
2023/09/02 01:53:23;;;;;;;61.28;32.13;;;16.50;99.90;;;;;;5090178;28;20052;-71
2023/09/02 01:55:50;;;;;;;64.25;32.80;;;16.50;99.90;;;;;;5078463;28;20097;-71
2023/09/02 01:58:16;;;;;;;63.63;32.10;;;16.50;99.90;;;;;;5089006;28;20048;-71
2023/09/02 02:00:42;;;;;;;60.47;32.47;;;16.60;99.90;;;;;;5084821;28;20356;-71
2023/09/02 02:03:16;;;;;;;58.72;31.83;;;16.60;99.90;;;;;;5081415;28;20029;-71
2023/09/02 02:05:54;;;;;;;77.18;32.78;;;16.70;99.90;;;;;;5083980;28;20054;-71
2023/09/02 02:08:25;;;;;;;56.85;31.25;;;16.70;99.90;;;;;;5081813;28;20068;-71
2023/09/02 02:10:53;;;;;;;58.22;31.58;;;16.70;99.90;;;;;;5086523;28;20051;-71
2023/09/02 02:13:19;;;;;;;62.45;32.22;;;16.70;99.90;;;;;;5090268;28;20028;-71
2023/09/02 02:15:44;;;;;;;68.75;32.67;;;16.70;99.90;;;;;;5090070;28;20095;-71
2023/09/02 02:18:10;;;;;;;56.17;31.52;;;16.80;99.90;;;;;;5080464;28;20044;-71
2023/09/02 02:20:49;;;;;;;68.95;32.97;;;16.80;99.90;;;;;;5083276;28;20029;-71
2023/09/02 02:23:15;;;;;;;61.50;33.42;;;16.90;99.90;;;;;;5073093;28;20086;-71
2023/09/02 02:25:40;;;;;;;55.22;31.85;;;16.90;99.90;;;;;;5085382;28;20020;-71
2023/09/02 02:28:06;;;;;;;60.67;33.50;;;16.90;99.90;;;;;;5086485;28;20070;-71
2023/09/02 02:30:32;;;;;;;61.13;33.03;;;16.90;99.90;;;;;;5077909;28;20020;-71
2023/09/02 02:32:59;;;;;;;58.88;30.42;;;16.90;99.90;;;;;;5083576;28;20025;-71
2023/09/02 02:35:31;;;;;;;53.08;31.52;;;16.90;99.90;;;;;;5088709;28;20670;-71
2023/09/02 02:37:59;;;;;;;83.63;33.30;;;16.90;99.90;;;;;;5078553;28;20035;-71
2023/09/02 02:40:25;;;;;;;58.92;31.70;;;16.90;99.90;;;;;;5074608;28;20134;-71
2023/09/02 02:42:50;;;;;;;55.15;31.42;;;16.90;99.90;;;;;;5080841;28;20497;-71
2023/09/02 02:45:16;;;;;;;53.58;29.45;;;16.90;99.90;;;;;;5083902;28;20087;-71
2023/09/02 02:47:42;;;;;;;52.78;30.48;;;16.90;99.90;;;;;;5082022;28;20103;-71
2023/09/02 02:50:08;;;;;;;49.95;31.27;;;16.90;99.90;;;;;;5090057;28;20020;-71
2023/09/02 02:52:33;;;;;;;48.42;29.65;;;16.90;99.90;;;;;;5085160;28;20025;-69
2023/09/02 02:54:59;;;;;;;50.25;31.13;;;17.00;99.90;;;;;;5082887;28;20562;-69
2023/09/02 02:57:25;;;;;;;50.40;30.83;;;17.00;99.90;;;;;;5085303;28;20386;-69
2023/09/02 02:59:53;;;;;;;53.47;30.50;;;17.00;99.90;;;;;;5074213;28;20047;-69
2023/09/02 03:02:19;;;;;;;66.57;30.55;;;16.90;99.90;;;;;;5083871;28;20024;-69
2023/09/02 03:04:48;;;;;;;47.38;30.25;;;17.00;99.90;;;;;;5089074;28;20039;-69
2023/09/02 03:07:14;;;;;;;60.28;30.33;;;17.00;99.90;;;;;;5090328;28;20687;-69
2023/09/02 03:09:40;;;;;;;98.40;30.48;;;17.00;99.90;;;;;;5070945;28;20025;-69
2023/09/02 03:12:06;;;;;;;71.93;29.95;;;17.00;99.90;;;;;;5083510;28;20026;-68
2023/09/02 03:14:32;;;;;;;51.38;29.15;;;17.00;99.90;;;;;;5082380;28;20016;-69
2023/09/02 03:16:58;;;;;;;51.40;29.83;;;17.00;99.90;;;;;;5093530;28;20576;-68
2023/09/02 03:19:24;;;;;;;47.78;30.95;;;16.90;99.90;;;;;;5074693;28;20472;-71
2023/09/02 03:21:50;;;;;;;58.00;30.77;;;16.90;99.90;;;;;;5085580;28;20542;-71
2023/09/02 03:24:15;;;;;;;47.65;30.02;;;16.90;99.90;;;;;;5076753;28;20450;-71
2023/09/02 03:26:41;;;;;;;49.40;30.10;;;16.90;99.90;;;;;;5092640;28;20111;-71
2023/09/02 03:29:06;;;;;;;59.72;30.52;;;16.90;99.90;;;;;;5091558;28;20382;-71
2023/09/02 03:31:32;;;;;;;51.85;30.83;;;17.00;99.90;;;;;;5082007;28;20012;-71
2023/09/02 03:33:58;;;;;;;52.90;31.35;;;16.90;99.90;;;;;;5088498;28;20077;-71
2023/09/02 03:36:23;;;;;;;57.10;30.23;;;16.90;99.90;;;;;;5087721;28;20098;-71
2023/09/02 03:38:49;;;;;;;56.08;31.48;;;16.90;99.90;;;;;;5075976;28;20403;-71
2023/09/02 03:41:17;;;;;;;54.60;30.48;;;16.90;99.90;;;;;;5082629;28;20476;-71
2023/09/02 03:43:45;;;;;;;51.45;31.38;;;17.00;99.90;;;;;;5078779;28;20051;-71
2023/09/02 03:46:10;;;;;;;58.13;32.30;;;17.00;99.90;;;;;;5084728;28;20027;-69
2023/09/02 03:48:36;;;;;;;53.90;31.95;;;17.00;99.90;;;;;;5092148;28;20028;-69
2023/09/02 03:51:12;;;;;;;57.65;31.58;;;17.00;99.90;;;;;;5078590;28;20024;-69
2023/09/02 03:53:41;;;;;;;58.67;31.58;;;17.00;99.90;;;;;;5086160;28;20491;-69
2023/09/02 03:56:07;;;;;;;55.63;31.48;;;17.00;99.90;;;;;;5081142;28;20020;-69
2023/09/02 03:58:33;;;;;;;92.75;29.75;;;17.00;99.90;;;;;;5087981;28;20450;-69
2023/09/02 04:00:59;;;;;;;45.47;27.25;;;17.00;99.90;;;;;;5092113;28;20025;-69
2023/09/02 04:03:26;;;;;;;51.83;30.52;;;17.00;99.90;;;;;;5090103;28;20371;-69
2023/09/02 04:05:52;;;;;;;47.95;29.20;;;17.00;99.90;;;;;;5092030;28;20481;-69
2023/09/02 04:08:21;;;;;;;47.85;29.40;;;17.00;99.90;;;;;;5084238;28;20021;-69
2023/09/02 04:10:52;;;;;;;49.47;30.88;;;17.00;99.90;;;;;;5073933;28;20017;-71
2023/09/02 04:13:21;;;;;;;56.45;28.13;;;17.00;99.90;;;;;;5074466;28;20024;-71
2023/09/02 04:15:47;;;;;;;42.97;27.08;;;17.00;99.90;;;;;;5078010;28;20016;-71
2023/09/02 04:18:12;;;;;;;39.10;24.77;;;17.00;99.90;;;;;;5087246;28;20039;-71
2023/09/02 04:20:38;;;;;;;44.47;27.80;;;17.00;99.90;;;;;;5080245;28;20357;-71
2023/09/02 04:23:03;;;;;;;42.22;25.52;;;17.00;99.90;;;;;;5091760;28;20104;-71
2023/09/02 04:25:29;;;;;;;38.70;25.35;;;17.00;99.90;;;;;;5082262;28;20021;-71
2023/09/02 04:27:55;;;;;;;40.58;25.50;;;17.00;99.90;;;;;;5091953;28;20089;-71
2023/09/02 04:30:23;;;;;;;74.63;25.00;;;17.00;99.90;;;;;;5091273;28;20486;-71
2023/09/02 04:32:49;;;;;;;47.53;26.10;;;17.00;99.90;;;;;;5077726;28;20103;-71
2023/09/02 04:35:15;;;;;;;44.45;25.10;;;16.90;99.90;;;;;;5090408;28;20111;-71
2023/09/02 04:37:41;;;;;;;35.97;24.40;;;17.00;99.90;;;;;;5083827;28;20051;-71
2023/09/02 04:40:08;;;;;;;36.33;24.83;;;17.00;99.90;;;;;;5074417;28;20017;-71
2023/09/02 04:42:34;;;;;;;38.50;24.85;;;17.00;99.90;;;;;;5091385;28;20414;-71
2023/09/02 04:44:59;;;;;;;45.53;23.42;;;17.00;99.90;;;;;;5089310;28;20078;-71
2023/09/02 04:47:25;;;;;;;37.60;23.70;;;17.00;99.90;;;;;;5080866;28;20024;-71
2023/09/02 04:49:50;;;;;;;37.33;24.95;;;16.90;99.90;;;;;;5073920;28;20029;-71
2023/09/02 04:52:16;;;;;;;42.03;24.45;;;16.90;99.90;;;;;;5091373;28;20020;-71
2023/09/02 04:54:45;;;;;;;34.17;22.77;;;16.90;99.90;;;;;;5088444;28;20119;-71
2023/09/02 04:57:11;;;;;;;85.38;21.48;;;16.90;99.90;;;;;;5085177;28;20023;-71
2023/09/02 04:59:38;;;;;;;31.90;21.65;;;16.90;99.90;;;;;;5083907;28;20040;-71
2023/09/02 05:02:05;;;;;;;36.15;20.00;;;16.90;99.90;;;;;;5088620;28;20012;-71
2023/09/02 05:04:31;;;;;;;39.67;19.25;;;16.80;99.90;;;;;;5089344;28;20419;-72
2023/09/02 05:06:56;;;;;;;41.97;21.02;;;16.80;99.90;;;;;;5090627;28;20099;-71
2023/09/02 05:09:22;;;;;;;45.08;20.65;;;16.80;99.90;;;;;;5090472;28;20110;-71
2023/09/02 05:11:48;;;;;;;41.05;20.58;;;16.70;99.90;;;;;;5089747;28;20115;-71
2023/09/02 05:14:14;;;;;;;28.83;18.33;;;16.70;99.90;;;;;;5081628;28;20091;-71
2023/09/02 05:16:39;;;;;;;43.38;19.73;;;16.70;99.90;;;;;;5089532;28;20024;-71
2023/09/02 05:19:05;;;;;;;27.88;20.33;;;16.70;99.90;;;;;;5082857;28;20451;-71
2023/09/02 05:21:31;;;;;;;48.15;20.35;;;16.60;99.90;;;;;;5073949;28;20035;-71
2023/09/02 05:23:56;;;;;;;27.27;19.23;;;16.60;99.90;;;;;;5085081;28;20028;-71
2023/09/02 05:26:22;;;;;;;23.77;17.73;;;16.60;99.90;;;;;;5080829;28;20017;-71
2023/09/02 05:28:47;;;;;;;24.38;18.40;;;16.60;99.90;;;;;;5078888;28;20096;-71
2023/09/02 05:31:13;;;;;;;22.85;17.98;;;16.60;99.90;;;;;;5087600;28;20020;-71
2023/09/02 05:33:39;;;;;;;25.55;17.58;;;16.60;99.90;;;;;;5082795;28;20035;-71
2023/09/02 05:36:04;;;;;;;23.52;18.45;;;16.60;99.90;;;;;;5082770;28;20020;-71
2023/09/02 05:38:30;;;;;;;25.80;19.02;;;16.60;99.90;;;;;;5078832;28;20369;-71
2023/09/02 05:40:56;;;;;;;59.72;18.55;;;16.60;99.90;;;;;;5084960;28;20376;-71
2023/09/02 05:43:24;;;;;;;23.40;18.30;;;16.60;99.90;;;;;;5089729;28;20036;-71
2023/09/02 05:45:50;;;;;;;22.45;17.60;;;16.60;99.90;;;;;;5089844;28;20103;-71
2023/09/02 05:48:16;;;;;;;20.80;17.27;;;16.70;99.90;;;;;;5085220;28;20662;-71
2023/09/02 05:50:42;;;;;;;20.45;16.30;;;16.70;99.90;;;;;;5087192;28;20107;-71
2023/09/02 05:53:08;;;;;;;27.17;16.85;;;16.70;99.90;;;;;;5088919;28;20099;-72
2023/09/02 05:55:34;;;;;;;20.67;15.55;;;16.70;99.90;;;;;;5083092;28;20437;-72
2023/09/02 05:58:00;;;;;;;22.05;15.35;;;16.70;99.90;;;;;;5084737;28;20429;-71
2023/09/02 06:00:25;;;;;;;19.88;16.45;;;16.70;99.90;;;;;;5081024;28;20032;-71
2023/09/02 06:02:51;;;;;;;32.65;17.05;;;16.70;99.90;;;;;;5085491;28;20028;-71
2023/09/02 06:05:17;;;;;;;40.65;15.30;;;16.70;99.90;;;;;;5088115;28;20017;-73
2023/09/02 06:07:42;;;;;;;19.92;15.25;;;16.70;99.90;;;;;;5073139;28;20070;-71
2023/09/02 06:10:09;;;;;;;20.30;16.38;;;16.70;99.90;;;;;;5089278;28;20055;-71
2023/09/02 06:12:34;;;;;;;21.38;17.17;;;16.70;99.90;;;;;;5085915;28;20137;-71
2023/09/02 06:15:00;;;;;;;37.03;17.38;;;16.70;99.90;;;;;;5083503;28;20543;-71
2023/09/02 06:17:30;;;;;;;29.23;16.73;;;16.80;99.90;;;;;;5088052;28;20035;-71
2023/09/02 06:19:57;;;;;;;23.23;17.95;;;16.80;99.90;;;;;;5084652;28;20026;-71
2023/09/02 06:22:22;;;;;;;21.88;17.42;;;16.90;99.90;;;;;;5089558;28;20020;-71
2023/09/02 06:24:48;;;;;;;55.40;17.55;;;16.90;99.90;;;;;;5085627;28;20031;-71
2023/09/02 06:27:14;;;;;;;19.98;15.45;;;16.90;99.90;;;;;;5088041;28;20020;-71
2023/09/02 06:29:43;;;;;;;48.30;16.05;;;16.90;99.90;;;;;;5086632;28;20020;-71
2023/09/02 06:32:09;;;;;;;57.05;16.15;;;17.00;99.90;;;;;;5081678;28;20056;-71
2023/09/02 06:34:34;;;;;;;19.55;15.55;;;17.00;99.90;;;;;;5088059;28;20078;-71
2023/09/02 06:37:00;;;;;;;19.30;15.05;;;17.00;99.90;;;;;;5076724;28;20021;-71
2023/09/02 06:39:26;;;;;;;18.10;14.50;;;16.90;99.90;;;;;;5084595;28;20360;-71
2023/09/02 06:41:51;;;;;;;17.45;14.30;;;17.00;99.90;;;;;;5088045;28;20455;-71
2023/09/02 06:44:17;;;;;;;21.63;15.60;;;17.00;99.90;;;;;;5086762;28;20111;-71
2023/09/02 06:46:43;;;;;;;30.02;17.15;;;17.00;99.90;;;;;;5082439;28;20028;-71
2023/09/02 06:49:08;;;;;;;24.98;18.42;;;17.10;99.90;;;;;;5079835;28;20015;-71
2023/09/02 06:51:34;;;;;;;27.27;16.20;;;17.10;99.90;;;;;;5084508;28;20104;-71
2023/09/02 06:54:00;;;;;;;21.75;17.17;;;17.10;99.90;;;;;;5081714;28;20099;-71
2023/09/02 06:56:25;;;;;;;21.48;17.20;;;17.10;99.90;;;;;;5079373;28;20052;-71
2023/09/02 06:58:51;;;;;;;23.45;16.52;;;17.10;99.90;;;;;;5085360;28;20048;-71
2023/09/02 07:01:18;;;;;;;30.75;17.85;;;17.10;99.90;;;;;;5086706;28;20016;-71
2023/09/02 07:03:45;;;;;;;22.35;17.77;;;17.10;99.90;;;;;;5093051;28;20028;-71
2023/09/02 07:06:15;;;;;;;69.28;18.13;;;17.10;99.90;;;;;;5075697;28;20044;-71
2023/09/02 07:08:41;;;;;;;26.73;17.88;;;17.10;99.90;;;;;;5074282;28;20488;-71
2023/09/02 07:11:09;;;;;;;56.47;19.08;;;17.10;99.90;;;;;;5077653;28;20051;-71
2023/09/02 07:13:34;;;;;;;26.00;18.90;;;17.00;99.90;;;;;;5081896;28;20016;-71
2023/09/02 07:16:01;;;;;;;29.15;19.95;;;17.10;99.90;;;;;;5090448;28;20153;-71
2023/09/02 07:18:27;;;;;;;31.90;19.52;;;17.10;99.90;;;;;;5081446;28;20028;-71
2023/09/02 07:20:57;;;;;;;40.15;20.38;;;17.20;99.90;;;;;;5086928;28;20035;-71
2023/09/02 07:23:23;;;;;;;43.80;20.60;;;17.30;99.90;;;;;;5083321;28;20060;-71
2023/09/02 07:25:48;;;;;;;31.58;22.35;;;17.30;99.90;;;;;;5088855;28;20055;-71
2023/09/02 07:28:14;;;;;;;31.15;20.95;;;17.30;99.90;;;;;;5088360;28;20409;-71
2023/09/02 07:30:39;;;;;;;33.17;22.08;;;17.30;99.90;;;;;;5093085;28;20040;-71
2023/09/02 07:33:05;;;;;;;42.30;22.05;;;17.40;99.90;;;;;;5091428;28;20029;-72
2023/09/02 07:35:36;;;;;;;37.95;21.25;;;17.40;99.90;;;;;;5091345;28;20588;-71
2023/09/02 07:38:03;;;;;;;41.60;22.20;;;17.40;99.90;;;;;;5092878;28;20035;-71
2023/09/02 07:40:28;;;;;;;34.08;22.33;;;17.40;99.90;;;;;;5093013;28;20028;-71
2023/09/02 07:42:54;;;;;;;56.47;21.77;;;17.50;99.90;;;;;;5079383;28;20020;-71
2023/09/02 07:45:20;;;;;;;55.00;22.50;;;17.60;99.90;;;;;;5092981;28;20052;-71
2023/09/02 07:47:45;;;;;;;46.17;23.67;;;17.60;99.90;;;;;;5092838;28;20096;-71
2023/09/02 07:50:11;;;;;;;51.80;24.33;;;17.60;99.90;;;;;;5089197;28;20077;-71
2023/09/02 07:52:37;;;;;;;44.78;23.25;;;17.60;99.90;;;;;;5087398;28;20055;-71
2023/09/02 07:55:03;;;;;;;50.03;25.55;;;17.50;99.90;;;;;;5085793;28;20487;-71
2023/09/02 07:57:30;;;;;;;62.97;25.83;;;17.50;99.90;;;;;;5084951;28;20034;-73
2023/09/02 07:59:56;;;;;;;75.65;26.63;;;17.50;99.90;;;;;;5085071;28;20052;-74
2023/09/02 08:02:22;;;;;;;49.20;27.55;;;17.50;99.90;;;;;;5084176;28;20016;-71
2023/09/02 08:04:48;;;;;;;53.50;29.00;;;17.50;99.90;;;;;;5085953;28;20499;-71
2023/09/02 08:07:14;;;;;;;58.72;28.88;;;17.50;99.90;;;;;;5083591;28;20104;-71
2023/09/02 08:09:39;;;;;;;55.95;27.65;;;17.60;99.90;;;;;;5090967;28;20375;-71
2023/09/02 08:12:06;;;;;;;52.55;29.15;;;17.60;99.90;;;;;;5090640;28;20028;-71
2023/09/02 08:14:32;;;;;;;57.50;30.00;;;17.70;99.90;;;;;;5090957;28;20054;-71
2023/09/02 08:16:57;;;;;;;55.28;29.35;;;17.70;99.90;;;;;;5091896;28;20020;-71
2023/09/02 08:19:23;;;;;;;56.92;29.90;;;17.80;99.90;;;;;;5090708;28;20027;-71
2023/09/02 08:21:49;;;;;;;58.33;30.00;;;17.80;99.90;;;;;;5091662;28;20023;-71
2023/09/02 08:24:14;;;;;;;59.70;30.50;;;17.80;99.90;;;;;;5089873;28;20475;-71
2023/09/02 08:26:41;;;;;;;62.55;31.17;;;17.90;99.90;;;;;;5074877;28;20456;-71
2023/09/02 08:29:06;;;;;;;64.40;31.38;;;18.00;99.90;;;;;;5073544;28;20255;-71
2023/09/02 08:31:32;;;;;;;62.13;30.73;;;18.10;99.90;;;;;;5090007;28;20013;-71
2023/09/02 08:33:58;;;;;;;59.20;30.27;;;18.20;99.90;;;;;;5078376;28;20020;-71
2023/09/02 08:36:23;;;;;;;61.75;31.02;;;18.20;99.90;;;;;;5071505;28;20029;-71
2023/09/02 08:38:51;;;;;;;58.60;30.35;;;18.30;99.90;;;;;;5078529;28;20016;-71
2023/09/02 08:41:29;;;;;;;56.20;29.05;;;18.40;99.90;;;;;;5091229;28;20345;-71
2023/09/02 08:43:56;;;;;;;58.25;31.70;;;18.40;99.90;;;;;;5089272;28;20032;-71
2023/09/02 08:46:28;;;;;;;62.42;32.42;;;18.50;99.90;;;;;;5091027;28;20036;-71
2023/09/02 08:48:57;;;;;;;60.08;31.88;;;18.60;99.90;;;;;;5091263;28;20016;-71
2023/09/02 08:51:24;;;;;;;62.10;31.90;;;18.60;99.90;;;;;;5091172;28;20070;-71
2023/09/02 08:53:55;;;;;;;60.85;30.38;;;18.70;99.90;;;;;;5083960;28;20038;-71
2023/09/02 08:56:23;;;;;;;65.18;31.95;;;18.80;99.90;;;;;;5085464;28;20024;-71
2023/09/02 08:58:49;;;;;;;59.03;30.90;;;18.90;99.90;;;;;;5086458;28;20097;-71
2023/09/02 09:01:19;;;;;;;63.90;32.20;;;19.00;99.90;;;;;;5090840;28;20008;-71
2023/09/02 09:03:49;;;;;;;61.55;31.63;;;19.00;99.90;;;;;;5091258;28;20040;-71
2023/09/02 09:06:17;;;;;;;65.45;31.98;;;19.10;99.90;;;;;;5090357;28;20043;-71
2023/09/02 09:08:44;;;;;;;64.10;31.70;;;19.20;99.90;;;;;;5091362;28;20020;-71
2023/09/02 09:11:11;;;;;;;63.72;32.53;;;19.30;99.90;;;;;;5073244;28;20025;-75
2023/09/02 09:13:44;;;;;;;59.22;30.85;;;19.50;99.90;;;;;;5081072;28;20093;-73
2023/09/02 09:16:15;;;;;;;66.35;33.33;;;19.60;99.90;;;;;;5077051;28;20018;-73
2023/09/02 09:18:41;;;;;;;58.15;32.10;;;19.90;99.90;;;;;;5085250;28;20191;-74
2023/09/02 09:21:07;;;;;;;55.13;30.48;;;20.10;99.90;;;;;;5072082;28;20023;-73
2023/09/02 09:23:35;;;;;;;53.50;31.02;;;20.30;99.90;;;;;;5081959;28;20103;-73
2023/09/02 09:26:06;;;;;;;59.05;31.50;;;20.40;99.90;;;;;;5085518;28;20497;-73
2023/09/02 09:28:52;;;;;;;57.47;31.27;;;20.50;99.90;;;;;;5082955;28;20061;-72
2023/09/02 09:31:19;;;;;;;56.22;30.75;;;20.80;99.90;;;;;;5088836;28;20039;-73
2023/09/02 09:33:59;;;;;;;51.38;29.83;;;20.80;99.90;;;;;;5083607;28;20066;-73
2023/09/02 09:36:29;;;;;;;53.10;30.40;;;20.90;99.90;;;;;;5085291;28;20024;-72
2023/09/02 09:38:58;;;;;;;52.40;28.67;;;20.90;99.90;;;;;;5075571;28;20063;-73
2023/09/02 09:41:25;;;;;;;54.50;29.00;;;21.00;99.90;;;;;;5082676;28;20099;-73
2023/09/02 09:44:10;;;;;;;55.85;28.98;;;21.10;99.90;;;;;;5090285;28;20031;-74
2023/09/02 09:46:52;;;;;;;50.22;28.13;;;21.20;99.90;;;;;;5090129;28;20153;-73
2023/09/02 09:49:35;;;;;;;54.70;28.50;;;21.30;99.90;;;;;;5081991;28;20379;-73
2023/09/02 09:52:01;;;;;;;49.17;27.27;;;21.40;99.90;;;;;;5084553;28;20439;-74
2023/09/02 09:54:47;;;;;;;45.75;26.27;;;21.50;99.90;;;;;;5084414;28;20107;-74
2023/09/02 09:57:29;;;;;;;44.90;26.10;;;21.50;99.90;;;;;;5084365;28;20482;-73
2023/09/02 09:59:55;;;;;;;44.25;25.50;;;21.60;99.90;;;;;;5088551;28;20036;-73
2023/09/02 10:02:21;;;;;;;40.75;22.85;;;21.50;99.90;;;;;;5085788;28;20267;-72
2023/09/02 10:04:54;;;;;;;47.50;25.15;;;21.50;99.90;;;;;;5084084;28;20013;-73
2023/09/02 10:07:22;;;;;;;41.45;24.17;;;21.60;99.90;;;;;;5083564;28;20103;-73
2023/09/02 10:09:48;;;;;;;43.00;24.05;;;21.70;99.90;;;;;;5090140;28;20367;-75
2023/09/02 10:12:17;;;;;;;42.83;24.00;;;21.70;99.90;;;;;;5077250;28;20021;-74
2023/09/02 10:14:46;;;;;;;42.38;24.10;;;21.70;99.90;;;;;;5086982;28;20028;-74
2023/09/02 10:17:12;;;;;;;40.03;23.10;;;21.80;99.90;;;;;;5089356;28;20660;-76
2023/09/02 10:19:39;;;;;;;39.63;23.10;;;21.90;99.90;;;;;;5076097;28;20016;-76
2023/09/02 10:22:05;;;;;;;41.85;22.45;;;22.00;99.90;;;;;;5089233;28;20023;-75
2023/09/02 10:24:33;;;;;;;35.85;21.67;;;22.00;99.90;;;;;;5091001;28;20032;-74
2023/09/02 10:27:01;;;;;;;39.40;22.90;;;22.10;99.90;;;;;;5094630;28;20028;-73
2023/09/02 10:29:32;;;;;;;39.42;22.13;;;22.20;99.90;;;;;;5088263;28;20092;-73
2023/09/02 10:32:06;;;;;;;37.85;22.83;;;22.20;99.90;;;;;;5087359;28;20048;-73
2023/09/02 10:34:53;;;;;;;36.42;23.15;;;22.20;99.90;;;;;;5093598;28;20397;-74
2023/09/02 10:37:24;;;;;;;42.25;23.83;;;22.30;99.90;;;;;;5085803;28;20035;-72
2023/09/02 10:40:04;;;;;;;42.55;24.48;;;22.30;99.90;;;;;;5087067;28;20363;-73
2023/09/02 10:42:30;;;;;;;40.58;23.67;;;22.30;99.90;;;;;;5081700;28;20544;-73
2023/09/02 10:44:57;;;;;;;40.85;24.33;;;22.20;99.90;;;;;;5092320;28;20035;-73
2023/09/02 10:47:22;;;;;;;37.20;24.02;;;22.20;99.90;;;;;;5084782;28;20055;-73
2023/09/02 10:49:49;;;;;;;38.33;25.25;;;22.10;99.90;;;;;;5091556;28;20028;-74
2023/09/02 10:52:15;;;;;;;42.65;25.38;;;22.20;99.90;;;;;;5090944;28;20398;-73
2023/09/02 10:55:01;;;;;;;41.10;25.35;;;22.20;99.90;;;;;;5091377;28;20445;-73
2023/09/02 10:57:27;;;;;;;39.30;23.92;;;22.30;99.90;;;;;;5092147;28;20044;-73
2023/09/02 11:00:20;;;;;;;37.92;23.80;;;22.30;99.90;;;;;;5094661;28;20078;-73
2023/09/02 11:02:48;;;;;;;38.85;23.65;;;22.40;99.90;;;;;;5091603;28;20086;-73
2023/09/02 11:05:14;;;;;;;41.15;24.45;;;22.50;99.90;;;;;;5093514;28;20032;-73
2023/09/02 11:07:41;;;;;;;42.95;25.85;;;22.50;99.90;;;;;;5091736;28;20406;-73
2023/09/02 11:10:08;;;;;;;37.38;24.00;;;22.60;99.90;;;;;;5083140;28;20071;-73
2023/09/02 11:12:34;;;;;;;37.47;23.98;;;22.50;99.90;;;;;;5096049;28;20383;-73
2023/09/02 11:15:09;;;;;;;40.90;24.45;;;22.50;99.90;;;;;;5088874;28;20078;-73
2023/09/02 11:17:39;;;;;;;40.72;25.25;;;22.40;99.90;;;;;;5076397;28;20024;-72
2023/09/02 11:20:05;;;;;;;44.75;25.08;;;22.40;99.90;;;;;;5088141;28;20051;-74
2023/09/02 11:22:51;;;;;;;40.40;24.88;;;22.40;99.90;;;;;;5085437;28;20502;-72
2023/09/02 11:25:37;;;;;;;41.22;24.95;;;22.50;99.90;;;;;;5085661;28;20031;-71
2023/09/02 11:28:23;;;;;;;;;;;22.60;99.90;;;;;;5093515;28;20023;-71
2023/09/02 11:31:16;;;;;;;40.47;24.25;;;22.50;99.90;;;;;;5079595;28;19915;-71
2023/09/02 11:33:47;;;;;;;41.70;24.40;;;22.70;99.90;;;;;;5075261;28;20028;-74
2023/09/02 11:36:15;;;;;;;40.28;25.00;;;22.70;99.90;;;;;;5081372;28;20047;-72
2023/09/02 11:38:41;;;;;;;35.55;23.75;;;22.70;99.90;;;;;;5077969;28;20024;-71
2023/09/02 11:41:10;;;;;;;37.58;23.65;;;22.80;99.90;;;;;;5094349;28;20017;-72
2023/09/02 11:43:36;;;;;;;36.95;22.85;;;23.00;99.90;;;;;;5078757;28;20032;-72
2023/09/02 11:46:03;;;;;;;42.90;23.20;;;23.10;99.90;;;;;;5086581;28;20019;-73
2023/09/02 11:48:30;;;;;;;36.72;22.92;;;23.20;99.90;;;;;;5090303;28;20028;-73
2023/09/02 11:51:00;;;;;;;35.28;22.83;;;23.30;99.90;;;;;;5086183;28;20110;-74
2023/09/02 11:53:30;;;;;;;32.13;21.58;;;23.50;99.90;;;;;;5086544;28;20024;-72
2023/09/02 11:55:56;;;;;;;35.75;22.58;;;23.50;99.90;;;;;;5085318;28;20046;-75
2023/09/02 11:58:22;;;;;;;34.83;23.63;;;23.60;99.90;;;;;;5089479;28;20487;-72
2023/09/02 12:00:49;;;;;;;33.42;22.42;;;23.60;99.90;;;;;;5080100;28;20112;-72
2023/09/02 12:03:27;;;;;;;34.95;22.25;;;23.60;99.90;;;;;;5090963;28;20052;-72
2023/09/02 12:05:55;;;;;;;34.90;21.83;;;23.60;99.90;;;;;;5092640;28;20162;-76
2023/09/02 12:08:22;;;;;;;30.63;20.33;;;23.60;99.90;;;;;;5074843;28;20024;-74
2023/09/02 12:10:48;;;;;;;26.92;18.73;;;23.70;99.90;;;;;;5089253;28;20631;-74
2023/09/02 12:13:15;;;;;;;26.77;18.27;;;23.70;99.90;;;;;;5079645;28;20024;-75
2023/09/02 12:15:41;;;;;;;28.15;19.00;;;23.80;99.90;;;;;;5088870;28;20095;-76
2023/09/02 12:18:07;;;;;;;28.17;18.98;;;23.80;99.90;;;;;;5080549;28;20286;-74
2023/09/02 12:20:33;;;;;;;29.52;18.25;;;23.90;99.90;;;;;;5090455;28;20081;-75
2023/09/02 12:22:59;;;;;;;25.42;17.60;;;24.00;99.90;;;;;;5090072;28;20016;-76
2023/09/02 12:25:26;;;;;;;25.63;17.83;;;24.00;99.90;;;;;;5091057;28;20417;-75
2023/09/02 12:27:53;;;;;;;32.60;21.40;;;24.00;99.90;;;;;;5076912;28;20035;-74
2023/09/02 12:30:30;;;;;;;31.90;20.30;;;24.10;99.90;;;;;;5085074;28;20055;-75